Time;durP1;ratioP1;P1;durP2;ratioP2;P2;SDS_P1;SDS_P2;PMS_P1;PMS_P2;Temp;Humidity;BMP_temperature;BMP_pressure;BME280_temperature;BME280_humidity;BME280_pressure;Samples;Min_cycle;Max_cycle;Signal;HPM_P1;HPM_P2
2022/10/04 00:01:52;;;;;;;12.20;7.20;;;;;;;;;;5053383;28;20313;-81
2022/10/04 00:04:24;;;;;;;11.53;7.57;;;;;;;;;;5055046;28;20274;-81
2022/10/04 00:06:56;;;;;;;12.47;6.53;;;;;;;;;;5053661;28;20214;-81
2022/10/04 00:09:25;;;;;;;11.33;7.40;;;;;;;;;;5043190;28;20293;-81
2022/10/04 00:11:55;;;;;;;11.07;5.10;;;;;;;;;;5067943;28;20207;-81
2022/10/04 00:14:26;;;;;;;14.00;7.20;;;;;;;;;;5050978;28;20199;-81
2022/10/04 00:16:55;;;;;;;12.90;7.60;;;;;;;;;;5051086;28;20229;-81
2022/10/04 00:19:27;;;;;;;7.40;5.80;;;;;;;;;;5043991;28;20257;-81
2022/10/04 00:22:26;;;;;;;10.20;6.40;;;;;;;;;;5039679;28;20260;-81
2022/10/04 00:25:21;;;;;;;16.30;7.50;;;;;;;;;;5038008;28;20206;-81
2022/10/04 00:28:09;;;;;;;4.13;3.63;;;;;;;;;;5047152;28;20202;-81
2022/10/04 00:30:38;;;;;;;9.57;7.17;;;;;;;;;;5044299;28;20227;-81
2022/10/04 00:33:07;;;;;;;12.80;6.30;;;;;;;;;;5037238;28;20199;-81
2022/10/04 00:35:48;;;;;;;7.60;5.47;;;;;;;;;;5053679;28;20199;-81
2022/10/04 00:38:17;;;;;;;8.93;5.23;;;;;;;;;;5052088;28;20252;-81
2022/10/04 00:40:47;;;;;;;10.57;6.03;;;;;;;;;;5068722;28;20252;-81
2022/10/04 00:43:18;;;;;;;9.50;5.80;;;;;;;;;;5030645;28;20195;-81
2022/10/04 00:45:48;;;;;;;11.30;6.23;;;;;;;;;;5039792;28;20210;-81
2022/10/04 00:48:29;;;;;;;10.00;6.37;;;;;;;;;;5052442;28;20202;-81
2022/10/04 00:51:03;;;;;;;8.07;4.97;;;;;;;;;;5048767;28;20210;-81
2022/10/04 00:53:42;;;;;;;9.60;4.73;;;;;;;;;;5052265;28;20219;-81
2022/10/04 00:56:14;;;;;;;8.90;5.40;;;;;;;;;;5068386;28;20210;-81
2022/10/04 00:58:47;;;;;;;12.00;5.60;;;;;;;;;;5051419;28;20225;-81
2022/10/04 01:01:18;;;;;;;2.33;2.03;;;;;;;;;;5045841;28;20223;-81
2022/10/04 01:03:47;;;;;;;2.20;2.03;;;;;;;;;;5065561;28;20198;-81
2022/10/04 01:06:17;;;;;;;8.77;5.90;;;;;;;;;;5051884;28;20223;-81
2022/10/04 01:08:48;;;;;;;7.73;5.67;;;;;;;;;;5040076;28;20202;-81
2022/10/04 01:11:18;;;;;;;10.00;5.23;;;;;;;;;;5069427;28;20199;-81
2022/10/04 01:13:49;;;;;;;10.00;6.10;;;;;;;;;;5043484;28;20219;-80
2022/10/04 01:16:18;;;;;;;11.40;5.00;;;;;;;;;;5038465;28;20207;-81
2022/10/04 01:18:47;;;;;;;8.10;4.07;;;;;;;;;;5047477;28;20575;-81
2022/10/04 01:21:28;;;;;;;7.10;5.27;;;;;;;;;;5033823;28;20198;-81
2022/10/04 01:24:12;;;;;;;7.30;6.03;;;;;;;;;;5024138;28;20190;-81
2022/10/04 01:26:42;;;;;;;12.07;4.90;;;;;;;;;;5049754;28;20297;-81
2022/10/04 01:29:12;;;;;;;11.37;5.13;;;;;;;;;;5045793;28;20294;-81
2022/10/04 01:31:42;;;;;;;8.23;4.87;;;;;;;;;;5032470;28;20246;-81
2022/10/04 01:34:13;;;;;;;10.17;5.90;;;;;;;;;;5034985;28;20232;-81
2022/10/04 01:36:41;;;;;;;8.97;7.03;;;;;;;;;;5040119;28;20336;-81
2022/10/04 01:39:10;;;;;;;8.80;6.53;;;;;;;;;;5039405;28;20210;-81
2022/10/04 01:41:45;;;;;;;11.63;5.77;;;;;;;;;;5052087;28;20187;-81
2022/10/04 01:44:18;;;;;;;14.80;6.77;;;;;;;;;;5051422;28;20210;-81
2022/10/04 01:46:47;;;;;;;9.63;6.03;;;;;;;;;;5043600;28;20196;-81
2022/10/04 01:49:18;;;;;;;10.47;6.77;;;;;;;;;;5036615;28;20194;-81
2022/10/04 01:51:56;;;;;;;9.73;7.93;;;;;;;;;;5041414;28;20215;-81
2022/10/04 01:54:31;;;;;;;11.60;6.67;;;;;;;;;;5032669;28;20211;-81
2022/10/04 01:57:05;;;;;;;8.97;5.37;;;;;;;;;;5046058;28;20205;-81
2022/10/04 01:59:38;;;;;;;9.00;6.40;;;;;;;;;;5049382;28;20226;-81
2022/10/04 02:02:08;;;;;;;13.20;8.30;;;;;;;;;;5035515;28;20226;-81
2022/10/04 02:04:38;;;;;;;14.83;8.37;;;;;;;;;;5041785;28;20210;-81
2022/10/04 02:07:11;;;;;;;10.83;7.73;;;;;;;;;;5039619;28;20235;-81
2022/10/04 02:09:42;;;;;;;9.97;6.70;;;;;;;;;;5032642;28;20289;-81
2022/10/04 02:12:15;;;;;;;8.27;7.33;;;;;;;;;;5039287;28;20206;-81
2022/10/04 02:14:46;;;;;;;13.20;7.57;;;;;;;;;;5046371;28;20230;-81
2022/10/04 02:17:16;;;;;;;9.73;7.70;;;;;;;;;;5041796;28;20198;-80
2022/10/04 02:19:44;;;;;;;16.37;9.87;;;;;;;;;;5052698;28;20257;-81
2022/10/04 02:22:13;;;;;;;4.87;4.40;;;;;;;;;;5033885;28;20195;-81
2022/10/04 02:24:46;;;;;;;11.37;7.30;;;;;;;;;;5045049;28;20202;-81
2022/10/04 02:27:16;;;;;;;8.20;5.03;;;;;;;;;;5032357;28;20210;-81
2022/10/04 02:29:44;;;;;;;12.40;8.87;;;;;;;;;;5035023;28;20265;-81
2022/10/04 02:35:00;;;;;;;11.73;7.67;;;;;;;;;;5032134;28;20237;-81
2022/10/04 02:37:29;;;;;;;14.10;9.20;;;;;;;;;;5032079;28;20199;-81
2022/10/04 02:40:00;;;;;;;11.70;9.13;;;;;;;;;;5032474;28;20245;-81
2022/10/04 02:42:38;;;;;;;6.90;5.97;;;;;;;;;;5039171;28;20206;-81
2022/10/04 02:45:10;;;;;;;14.70;6.67;;;;;;;;;;5057772;28;20241;-81
2022/10/04 02:47:43;;;;;;;17.40;10.33;;;;;;;;;;5036660;28;20257;-81
2022/10/04 02:50:19;;;;;;;12.43;9.30;;;;;;;;;;5049298;28;20328;-81
2022/10/04 02:52:51;;;;;;;15.67;11.47;;;;;;;;;;5036179;28;20257;-81
2022/10/04 02:55:21;;;;;;;18.37;10.87;;;;;;;;;;5041726;28;20202;-81
2022/10/04 02:57:51;;;;;;;6.43;4.70;;;;;;;;;;5055630;28;20281;-81
2022/10/04 03:00:21;;;;;;;15.17;10.17;;;;;;;;;;5029843;28;20229;-81
2022/10/04 03:03:08;;;;;;;16.27;9.03;;;;;;;;;;5054472;28;20318;-81
2022/10/04 03:05:37;;;;;;;14.00;10.13;;;;;;;;;;5036423;28;20409;-81
2022/10/04 03:08:06;;;;;;;15.00;10.00;;;;;;;;;;5048883;28;20223;-81
2022/10/04 03:10:34;;;;;;;8.03;3.83;;;;;;;;;;5047959;28;20202;-81
2022/10/04 03:13:06;;;;;;;17.10;8.67;;;;;;;;;;5047869;28;20225;-81
2022/10/04 03:15:34;;;;;;;1.60;1.23;;;;;;;;;;5048278;28;20255;-81
2022/10/04 03:18:03;;;;;;;1.17;1.17;;;;;;;;;;5054435;28;20223;-81
2022/10/04 03:20:31;;;;;;;9.87;7.53;;;;;;;;;;5054956;28;20221;-81
2022/10/04 03:23:00;;;;;;;7.83;4.70;;;;;;;;;;5070838;28;20198;-81
2022/10/04 03:25:30;;;;;;;13.53;10.13;;;;;;;;;;5055563;28;20298;-81
2022/10/04 03:28:01;;;;;;;16.47;10.60;;;;;;;;;;5054587;28;20195;-81
2022/10/04 03:30:31;;;;;;;14.93;10.43;;;;;;;;;;5054129;28;20234;-81
2022/10/04 03:33:00;;;;;;;17.70;10.87;;;;;;;;;;5055805;28;20206;-81
2022/10/04 03:35:29;;;;;;;17.47;10.90;;;;;;;;;;5042517;28;20203;-81
2022/10/04 03:38:01;;;;;;;11.67;8.57;;;;;;;;;;5054903;28;20248;-81
2022/10/04 03:40:31;;;;;;;15.10;9.93;;;;;;;;;;5067940;28;20306;-81
2022/10/04 03:43:00;;;;;;;13.13;9.07;;;;;;;;;;5046136;28;20233;-81
2022/10/04 03:45:29;;;;;;;14.60;9.83;;;;;;;;;;5042840;28;20190;-81
2022/10/04 03:48:03;;;;;;;13.10;9.20;;;;;;;;;;5060073;28;20290;-81
2022/10/04 03:50:33;;;;;;;13.90;11.97;;;;;;;;;;5049006;28;20198;-81
2022/10/04 03:53:03;;;;;;;12.20;9.10;;;;;;;;;;5047324;28;20256;-81
2022/10/04 03:55:33;;;;;;;18.00;11.10;;;;;;;;;;5027720;28;20191;-81
2022/10/04 03:58:02;;;;;;;13.30;9.53;;;;;;;;;;5041189;28;20277;-81
2022/10/04 04:00:34;;;;;;;12.50;8.17;;;;;;;;;;5055191;28;20194;-81
2022/10/04 04:03:07;;;;;;;14.60;10.30;;;;;;;;;;5068875;28;20232;-81
2022/10/04 04:05:38;;;;;;;14.23;10.43;;;;;;;;;;5052145;28;20199;-81
2022/10/04 04:08:08;;;;;;;18.87;9.77;;;;;;;;;;5037471;28;20305;-81
2022/10/04 04:10:38;;;;;;;14.47;11.00;;;;;;;;;;5045967;28;20466;-81
2022/10/04 04:13:12;;;;;;;20.00;11.40;;;;;;;;;;5043294;28;20241;-81
2022/10/04 04:15:42;;;;;;;16.60;9.60;;;;;;;;;;5041705;28;20207;-81
2022/10/04 04:18:16;;;;;;;11.40;8.07;;;;;;;;;;5038049;28;20217;-81
2022/10/04 04:20:48;;;;;;;11.40;8.70;;;;;;;;;;5048586;28;20218;-81
2022/10/04 04:23:22;;;;;;;15.87;12.27;;;;;;;;;;5046425;28;20294;-81
2022/10/04 04:25:54;;;;;;;12.50;9.33;;;;;;;;;;5037454;28;20194;-80
2022/10/04 04:28:25;;;;;;;18.03;9.03;;;;;;;;;;5069999;28;20202;-81
2022/10/04 04:30:55;;;;;;;21.03;12.70;;;;;;;;;;5032783;28;20313;-81
2022/10/04 04:33:27;;;;;;;14.87;12.67;;;;;;;;;;5027198;28;20203;-81
2022/10/04 04:35:56;;;;;;;18.00;13.07;;;;;;;;;;5041456;28;20201;-81
2022/10/04 04:38:26;;;;;;;16.47;11.47;;;;;;;;;;5053626;28;20328;-81
2022/10/04 04:40:54;;;;;;;13.57;11.27;;;;;;;;;;5040924;28;20202;-81
2022/10/04 04:43:26;;;;;;;8.73;6.17;;;;;;;;;;5041208;28;20211;-81
2022/10/04 04:45:57;;;;;;;12.07;9.27;;;;;;;;;;5054487;28;20198;-81
2022/10/04 04:48:47;;;;;;;16.17;13.67;;;;;;;;;;5069206;28;20276;-81
2022/10/04 04:51:20;;;;;;;20.83;11.97;;;;;;;;;;5053441;28;20207;-81
2022/10/04 04:53:49;;;;;;;18.20;13.83;;;;;;;;;;5048537;28;20281;-81
2022/10/04 04:56:20;;;;;;;20.30;12.77;;;;;;;;;;5033793;28;20218;-81
2022/10/04 04:58:50;;;;;;;20.73;14.37;;;;;;;;;;5022094;28;20211;-81
2022/10/04 05:01:22;;;;;;;22.87;13.40;;;;;;;;;;5047266;28;20226;-81
2022/10/04 05:04:02;;;;;;;15.53;13.30;;;;;;;;;;5053262;28;20206;-81
2022/10/04 05:06:31;;;;;;;17.10;11.43;;;;;;;;;;5035766;28;20210;-80
2022/10/04 05:08:59;;;;;;;19.33;12.67;;;;;;;;;;5050527;28;20205;-80
2022/10/04 05:11:29;;;;;;;17.23;12.40;;;;;;;;;;5046957;28;20191;-80
2022/10/04 05:14:00;;;;;;;18.10;13.90;;;;;;;;;;5045229;28;20292;-80
2022/10/04 05:16:39;;;;;;;26.67;15.07;;;;;;;;;;5052268;28;20191;-80
2022/10/04 05:19:14;;;;;;;24.00;16.67;;;;;;;;;;5051495;28;20211;-80
2022/10/04 05:21:43;;;;;;;23.27;17.63;;;;;;;;;;5037443;28;20198;-80
2022/10/04 05:24:14;;;;;;;16.80;11.57;;;;;;;;;;5031695;28;20251;-80
2022/10/04 05:26:43;;;;;;;17.70;11.70;;;;;;;;;;5033738;28;20221;-80
2022/10/04 05:29:13;;;;;;;24.43;15.03;;;;;;;;;;5030259;28;20277;-80
2022/10/04 05:31:46;;;;;;;20.23;15.10;;;;;;;;;;5024725;28;20231;-79
2022/10/04 05:34:19;;;;;;;19.97;12.77;;;;;;;;;;5051240;28;20265;-80
2022/10/04 05:37:05;;;;;;;11.93;9.37;;;;;;;;;;5040770;28;20229;-81
2022/10/04 05:39:37;;;;;;;3.07;2.67;;;;;;;;;;5039403;28;20225;-80
2022/10/04 05:42:11;;;;;;;12.23;8.53;;;;;;;;;;5049040;28;20218;-80
2022/10/04 05:44:46;;;;;;;14.93;8.60;;;;;;;;;;5057709;28;20203;-80
2022/10/04 05:47:22;;;;;;;10.17;7.97;;;;;;;;;;5025855;28;20228;-79
2022/10/04 05:49:54;;;;;;;15.20;11.20;;;;;;;;;;5038526;28;20205;-80
2022/10/04 05:52:29;;;;;;;18.20;13.63;;;;;;;;;;5033146;28;20199;-79
2022/10/04 05:55:22;;;;;;;21.27;16.50;;;;;;;;;;5034065;28;20203;-80
2022/10/04 05:57:57;;;;;;;25.17;19.13;;;;;;;;;;5036089;28;20202;-80
2022/10/04 06:00:34;;;;;;;22.73;17.40;;;;;;;;;;5020881;28;20263;-79
2022/10/04 06:03:12;;;;;;;25.57;17.57;;;;;;;;;;5048198;28;20209;-79
2022/10/04 06:05:52;;;;;;;26.93;20.27;;;;;;;;;;5069254;28;20197;-79
2022/10/04 06:08:31;;;;;;;18.53;13.57;;;;;;;;;;5026212;28;20309;-79
2022/10/04 06:11:04;;;;;;;23.80;15.73;;;;;;;;;;5028963;28;20217;-80
2022/10/04 06:13:50;;;;;;;22.70;16.43;;;;;;;;;;5040798;28;20236;-80
2022/10/04 06:16:23;;;;;;;23.63;16.53;;;;;;;;;;5052329;28;20205;-79
2022/10/04 06:19:07;;;;;;;27.40;17.23;;;;;;;;;;5040408;28;20199;-79
2022/10/04 06:21:41;;;;;;;24.17;16.30;;;;;;;;;;5030383;28;20226;-79
2022/10/04 06:24:11;;;;;;;21.93;16.20;;;;;;;;;;5045980;28;20208;-80
2022/10/04 06:26:42;;;;;;;12.47;7.83;;;;;;;;;;5041806;28;20213;-79
2022/10/04 06:29:12;;;;;;;25.10;17.57;;;;;;;;;;5050459;28;20305;-80
2022/10/04 06:31:55;;;;;;;23.60;14.57;;;;;;;;;;5052354;28;20268;-79
2022/10/04 06:34:48;;;;;;;17.10;11.87;;;;;;;;;;5051187;28;20228;-80
2022/10/04 06:37:26;;;;;;;18.60;10.00;;;;;;;;;;5047396;28;20218;-80
2022/10/04 06:40:03;;;;;;;23.27;15.70;;;;;;;;;;5033628;28;20243;-81
2022/10/04 06:42:38;;;;;;;26.27;17.37;;;;;;;;;;5043635;28;20205;-80
2022/10/04 06:45:28;;;;;;;19.67;16.57;;;;;;;;;;5038072;28;20221;-80
2022/10/04 06:48:06;;;;;;;19.67;12.83;;;;;;;;;;5043476;28;20236;-79
2022/10/04 06:50:40;;;;;;;18.30;10.63;;;;;;;;;;5067820;28;20194;-80
2022/10/04 06:53:15;;;;;;;14.67;7.63;;;;;;;;;;5038359;28;20206;-80
2022/10/04 06:55:49;;;;;;;22.03;18.33;;;;;;;;;;5057350;28;20213;-80
2022/10/04 06:58:36;;;;;;;22.43;15.03;;;;;;;;;;5035393;28;20261;-80
2022/10/04 07:01:09;;;;;;;17.93;12.70;;;;;;;;;;5033070;28;20225;-80
2022/10/04 07:03:41;;;;;;;13.33;10.67;;;;;;;;;;5039293;28;20198;-79
2022/10/04 07:06:10;;;;;;;23.17;17.23;;;;;;;;;;5036855;28;20217;-80
2022/10/04 07:08:46;;;;;;;23.30;17.13;;;;;;;;;;5031996;28;20238;-80
2022/10/04 07:11:18;;;;;;;19.10;13.97;;;;;;;;;;5033499;28;20209;-80
2022/10/04 07:13:50;;;;;;;10.87;4.50;;;;;;;;;;5042176;28;20203;-81
2022/10/04 07:16:25;;;;;;;15.50;11.17;;;;;;;;;;5033965;28;20207;-81
2022/10/04 07:18:58;;;;;;;18.07;12.97;;;;;;;;;;5042443;28;20256;-81
2022/10/04 07:21:35;;;;;;;24.00;14.77;;;;;;;;;;5015691;28;20207;-82
2022/10/04 07:24:10;;;;;;;24.70;15.83;;;;;;;;;;5039108;28;20207;-80
2022/10/04 07:26:44;;;;;;;13.03;9.97;;;;;;;;;;5025955;28;20233;-82
2022/10/04 07:29:21;;;;;;;23.00;20.30;;;;;;;;;;5044840;28;20242;-81
2022/10/04 07:31:52;;;;;;;21.00;16.63;;;;;;;;;;5030484;28;20195;-81
2022/10/04 07:34:26;;;;;;;19.43;12.73;;;;;;;;;;5045547;28;20203;-81
2022/10/04 07:36:56;;;;;;;26.00;18.17;;;;;;;;;;5031798;28;20234;-81
2022/10/04 07:39:28;;;;;;;19.40;13.87;;;;;;;;;;5014392;28;20782;-82
2022/10/04 07:42:00;;;;;;;22.93;14.90;;;;;;;;;;5019368;28;20203;-80
2022/10/04 07:44:35;;;;;;;21.20;14.83;;;;;;;;;;5034293;28;20227;-81
2022/10/04 07:47:09;;;;;;;22.47;13.27;;;;;;;;;;5011161;28;20198;-82
2022/10/04 07:49:38;;;;;;;18.00;15.63;;;;;;;;;;5034215;28;20224;-81
2022/10/04 07:52:20;;;;;;;15.60;10.53;;;;;;;;;;5020007;28;20286;-81
2022/10/04 07:54:59;;;;;;;25.67;18.13;;;;;;;;;;5020515;28;20208;-81
2022/10/04 07:57:31;;;;;;;21.20;12.93;;;;;;;;;;5014154;28;20237;-80
2022/10/04 08:00:04;;;;;;;23.93;14.17;;;;;;;;;;5030566;28;20215;-81
2022/10/04 08:02:43;;;;;;;18.43;14.93;;;;;;;;;;5011211;28;20362;-81
2022/10/04 08:05:19;;;;;;;19.97;14.63;;;;;;;;;;5015583;28;20288;-81
2022/10/04 08:07:58;;;;;;;20.63;14.00;;;;;;;;;;5013174;28;20221;-84
2022/10/04 08:10:32;;;;;;;18.27;14.47;;;;;;;;;;5010216;28;20301;-79
2022/10/04 08:13:06;;;;;;;16.97;12.07;;;;;;;;;;5012974;28;20218;-82
2022/10/04 08:15:39;;;;;;;19.83;13.47;;;;;;;;;;5013792;28;20264;-80
2022/10/04 08:18:20;;;;;;;13.90;9.43;;;;;;;;;;5016656;28;20225;-82
2022/10/04 08:20:50;;;;;;;21.33;15.23;;;;;;;;;;5012667;28;20211;-82
2022/10/04 08:23:26;;;;;;;20.40;12.40;;;;;;;;;;5013507;28;20226;-81
2022/10/04 08:26:00;;;;;;;26.30;16.90;;;;;;;;;;5020428;28;20285;-81
2022/10/04 08:31:37;;;;;;;18.10;11.60;;;;;;;;;;5014446;28;20211;-83
2022/10/04 08:34:16;;;;;;;17.20;14.60;;;;;;;;;;5022552;28;20242;-80
2022/10/04 08:36:52;;;;;;;22.80;16.47;;;;;;;;;;5017640;28;20203;-81
2022/10/04 08:39:28;;;;;;;12.07;9.00;;;;;;;;;;5006408;28;20203;-82
2022/10/04 08:42:19;;;;;;;16.83;12.10;;;;;;;;;;5007154;28;20218;-82
2022/10/04 08:45:15;;;;;;;9.20;8.37;;;;;;;;;;5023546;28;20208;-82
2022/10/04 08:48:05;;;;;;;11.00;7.40;;;;;;;;;;5024467;28;20213;-82
2022/10/04 08:50:49;;;;;;;18.20;7.17;;;;;;;;;;5027930;28;20217;-81
2022/10/04 08:53:37;;;;;;;4.30;3.90;;;;;;;;;;5024173;28;20207;-83
2022/10/04 08:56:19;;;;;;;6.73;4.83;;;;;;;;;;5008600;28;20212;-81
2022/10/04 08:58:55;;;;;;;8.27;7.40;;;;;;;;;;5026438;28;20209;-81
2022/10/04 09:01:44;;;;;;;7.37;6.63;;;;;;;;;;5027148;28;20298;-82
2022/10/04 09:04:41;;;;;;;16.43;13.57;;;;;;;;;;5010508;28;20216;-85
2022/10/04 09:07:48;;;;;;;15.73;13.23;;;;;;;;;;5008425;28;20196;-84
2022/10/04 09:10:47;;;;;;;19.67;15.27;;;;;;;;;;5014647;28;20224;-84
2022/10/04 09:17:01;;;;;;;18.33;11.93;;;;;;;;;;5012865;28;20350;-84
2022/10/04 09:19:51;;;;;;;15.90;9.43;;;;;;;;;;5022989;28;20199;-85
2022/10/04 09:23:07;;;;;;;11.57;6.07;;;;;;;;;;5024925;28;20213;-85
2022/10/04 09:26:29;;;;;;;12.77;10.70;;;;;;;;;;5006526;28;20303;-84
2022/10/04 09:29:16;;;;;;;13.47;8.57;;;;;;;;;;5014226;28;20220;-85
2022/10/04 09:32:04;;;;;;;10.80;8.17;;;;;;;;;;5015539;28;20200;-85
2022/10/04 09:38:14;;;;;;;13.47;10.33;;;;;;;;;;4996171;28;20211;-85
2022/10/04 09:41:13;;;;;;;14.93;11.43;;;;;;;;;;5006145;28;20299;-86
2022/10/04 09:47:36;;;;;;;14.87;9.10;;;;;;;;;;4988937;28;20221;-86
2022/10/04 09:51:23;;;;;;;;;;;;;;;;;;;;;
2022/10/04 09:54:23;;;;;;;12.83;10.53;;;;;;;;;;4977706;28;20212;-85
2022/10/04 09:57:26;;;;;;;22.00;15.10;;;;;;;;;;4965831;28;20205;-87
2022/10/04 10:00:09;;;;;;;17.80;13.97;;;;;;;;;;5000601;28;20221;-85
2022/10/04 10:03:02;;;;;;;16.87;12.40;;;;;;;;;;5022516;28;20260;-85
2022/10/04 10:05:58;;;;;;;11.03;7.23;;;;;;;;;;5010627;28;20235;-85
2022/10/04 10:08:39;;;;;;;14.97;10.33;;;;;;;;;;5006386;28;20201;-86
2022/10/04 10:15:17;;;;;;;18.30;11.13;;;;;;;;;;5019597;28;20217;-85
2022/10/04 10:18:16;;;;;;;13.67;8.50;;;;;;;;;;4965355;28;20215;-84
2022/10/04 10:21:01;;;;;;;9.53;8.50;;;;;;;;;;4956885;28;20276;-83
2022/10/04 10:23:52;;;;;;;12.00;9.17;;;;;;;;;;4958451;28;20225;-84
2022/10/04 10:26:48;;;;;;;9.13;6.87;;;;;;;;;;4952595;28;20219;-84
2022/10/04 10:29:39;;;;;;;9.13;7.10;;;;;;;;;;4977469;28;20222;-84
2022/10/04 10:32:36;;;;;;;13.53;10.80;;;;;;;;;;5012331;28;20304;-84
2022/10/04 10:35:37;;;;;;;10.30;8.07;;;;;;;;;;4949184;28;20208;-84
2022/10/04 10:38:21;;;;;;;13.77;9.67;;;;;;;;;;4926587;28;20326;-85
2022/10/04 10:41:00;;;;;;;10.30;8.00;;;;;;;;;;5000601;28;20213;-84
2022/10/04 10:43:48;;;;;;;7.23;5.60;;;;;;;;;;5004011;28;20212;-82
2022/10/04 10:46:22;;;;;;;10.20;8.00;;;;;;;;;;5009060;28;20344;-79
2022/10/04 10:49:02;;;;;;;13.43;8.93;;;;;;;;;;5007009;28;20212;-82
2022/10/04 10:51:54;;;;;;;8.67;5.57;;;;;;;;;;5009732;28;20205;-81
2022/10/04 10:54:45;;;;;;;5.50;3.77;;;;;;;;;;5007928;28;20219;-81
2022/10/04 10:57:19;;;;;;;8.50;4.40;;;;;;;;;;5022012;28;20214;-82
2022/10/04 11:00:07;;;;;;;4.50;3.93;;;;;;;;;;5012545;28;20207;-83
2022/10/04 11:03:00;;;;;;;8.90;6.80;;;;;;;;;;5025226;28;20352;-81
2022/10/04 11:06:12;;;;;;;3.97;3.47;;;;;;;;;;4998345;28;20207;-83
2022/10/04 11:09:11;;;;;;;4.33;3.63;;;;;;;;;;5007351;28;20214;-82
2022/10/04 11:11:50;;;;;;;4.80;4.23;;;;;;;;;;5011900;28;20198;-83
2022/10/04 11:14:36;;;;;;;3.90;3.47;;;;;;;;;;5010033;28;20311;-83
2022/10/04 11:17:26;;;;;;;9.23;7.13;;;;;;;;;;4998764;28;20206;-81
2022/10/04 11:20:09;;;;;;;8.93;4.67;;;;;;;;;;5011007;28;20199;-81
2022/10/04 11:22:51;;;;;;;5.43;2.33;;;;;;;;;;5025243;28;20217;-82
2022/10/04 11:25:41;;;;;;;7.10;4.53;;;;;;;;;;5016340;28;20215;-83
2022/10/04 11:28:15;;;;;;;3.27;2.40;;;;;;;;;;4991599;28;20269;-84
2022/10/04 11:31:08;;;;;;;5.37;4.40;;;;;;;;;;5011652;28;20215;-83
2022/10/04 11:34:04;;;;;;;9.90;5.47;;;;;;;;;;5020167;28;20242;-85
2022/10/04 11:36:47;;;;;;;4.83;3.87;;;;;;;;;;5004993;28;20218;-85
2022/10/04 11:39:25;;;;;;;6.63;3.70;;;;;;;;;;5003971;28;20210;-86
2022/10/04 11:42:18;;;;;;;5.03;4.27;;;;;;;;;;5025082;28;20195;-85
2022/10/04 11:45:01;;;;;;;8.17;4.27;;;;;;;;;;5026886;28;20234;-87
2022/10/04 11:47:42;;;;;;;7.10;4.33;;;;;;;;;;5018690;28;20210;-82
2022/10/04 11:50:21;;;;;;;4.63;3.43;;;;;;;;;;5011246;28;20279;-84
2022/10/04 11:52:57;;;;;;;5.43;3.60;;;;;;;;;;5006397;28;20208;-83
2022/10/04 11:55:36;;;;;;;5.33;4.17;;;;;;;;;;5014021;28;20292;-85
2022/10/04 11:58:09;;;;;;;7.13;4.77;;;;;;;;;;5007484;28;20224;-83
2022/10/04 12:00:53;;;;;;;6.90;5.07;;;;;;;;;;5015214;28;20210;-83
2022/10/04 12:03:42;;;;;;;6.07;3.63;;;;;;;;;;5007603;28;20297;-83
2022/10/04 12:06:21;;;;;;;4.87;4.37;;;;;;;;;;5012283;28;20217;-83
2022/10/04 12:08:55;;;;;;;3.90;2.53;;;;;;;;;;5010799;28;20207;-83
2022/10/04 12:14:54;;;;;;;2.53;1.73;;;;;;;;;;5001681;28;20217;-83
2022/10/04 12:17:55;;;;;;;7.80;4.53;;;;;;;;;;5017212;28;20203;-83
2022/10/04 12:20:39;;;;;;;8.27;3.60;;;;;;;;;;4949900;28;20209;-83
2022/10/04 12:23:18;;;;;;;7.47;4.33;;;;;;;;;;4976281;28;20210;-82
2022/10/04 12:26:16;;;;;;;4.30;3.40;;;;;;;;;;5026371;28;20211;-80
2022/10/04 12:29:00;;;;;;;3.13;1.80;;;;;;;;;;5005847;28;20214;-81
2022/10/04 12:31:32;;;;;;;4.60;4.20;;;;;;;;;;5030530;28;20218;-81
2022/10/04 12:34:05;;;;;;;4.23;3.13;;;;;;;;;;5010076;28;20241;-84
2022/10/04 12:36:43;;;;;;;4.20;3.47;;;;;;;;;;5020971;28;20222;-81
2022/10/04 12:39:20;;;;;;;3.57;2.90;;;;;;;;;;5024871;28;20232;-81
2022/10/04 12:41:54;;;;;;;4.03;3.50;;;;;;;;;;5010129;28;20208;-82
2022/10/04 12:44:28;;;;;;;3.80;2.43;;;;;;;;;;5022016;28;20207;-82
2022/10/04 12:47:04;;;;;;;6.93;3.57;;;;;;;;;;5007790;28;20210;-82
2022/10/04 12:49:44;;;;;;;4.77;2.73;;;;;;;;;;5025944;28;20207;-82
2022/10/04 12:52:17;;;;;;;5.90;3.63;;;;;;;;;;5014414;28;20234;-83
2022/10/04 12:54:49;;;;;;;2.77;2.23;;;;;;;;;;5024172;28;20273;-81
2022/10/04 12:57:46;;;;;;;5.50;3.90;;;;;;;;;;5023764;28;20198;-82
2022/10/04 13:00:19;;;;;;;3.47;2.87;;;;;;;;;;5021096;28;20294;-82
2022/10/04 13:03:09;;;;;;;3.03;2.37;;;;;;;;;;5024610;28;20234;-80
2022/10/04 13:05:40;;;;;;;3.90;3.40;;;;;;;;;;5000755;28;20199;-81
2022/10/04 13:08:18;;;;;;;4.67;3.97;;;;;;;;;;5020130;28;20236;-82
2022/10/04 13:11:00;;;;;;;2.80;2.30;;;;;;;;;;5018705;28;20219;-81
2022/10/04 13:13:47;;;;;;;7.03;3.50;;;;;;;;;;5026855;28;20199;-82
2022/10/04 13:16:21;;;;;;;6.10;3.77;;;;;;;;;;5028974;28;20440;-83
2022/10/04 13:19:16;;;;;;;6.07;3.93;;;;;;;;;;5021092;28;20199;-82
2022/10/04 13:22:02;;;;;;;5.30;3.23;;;;;;;;;;5026631;28;20201;-82
2022/10/04 13:24:53;;;;;;;6.43;4.30;;;;;;;;;;5021984;28;20203;-82
2022/10/04 13:27:27;;;;;;;5.97;3.57;;;;;;;;;;5010902;28;20230;-83
2022/10/04 13:30:01;;;;;;;4.60;2.67;;;;;;;;;;5017942;28;20230;-85
2022/10/04 13:32:36;;;;;;;5.20;4.77;;;;;;;;;;5012949;28;20214;-83
2022/10/04 13:35:11;;;;;;;2.40;2.13;;;;;;;;;;5014492;28;20209;-82
2022/10/04 13:37:46;;;;;;;1.93;1.83;;;;;;;;;;5008959;28;20214;-82
2022/10/04 13:40:34;;;;;;;6.80;3.20;;;;;;;;;;5015796;28;20205;-82
2022/10/04 13:43:11;;;;;;;3.40;2.67;;;;;;;;;;5009473;28;20203;-82
2022/10/04 13:45:53;;;;;;;4.07;3.33;;;;;;;;;;5012795;28;20222;-83
2022/10/04 13:48:27;;;;;;;5.93;4.50;;;;;;;;;;5013250;28;20212;-82
2022/10/04 13:51:04;;;;;;;2.93;2.50;;;;;;;;;;5010948;28;20332;-82
2022/10/04 13:56:41;;;;;;;5.23;3.57;;;;;;;;;;5025741;28;20207;-83
2022/10/04 13:59:18;;;;;;;4.37;3.20;;;;;;;;;;5011570;28;20517;-82
2022/10/04 14:02:12;;;;;;;6.47;5.57;;;;;;;;;;5016299;28;20222;-83
2022/10/04 14:04:53;;;;;;;8.40;2.73;;;;;;;;;;4943120;28;20258;-81
2022/10/04 14:07:30;;;;;;;6.83;2.30;;;;;;;;;;5013132;28;20218;-82
2022/10/04 14:10:04;;;;;;;4.83;2.83;;;;;;;;;;5009914;28;20238;-82
2022/10/04 14:13:02;;;;;;;2.30;1.80;;;;;;;;;;5006570;28;20304;-82
2022/10/04 14:15:51;;;;;;;6.03;3.37;;;;;;;;;;4978052;28;20206;-82
2022/10/04 14:18:42;;;;;;;4.40;3.03;;;;;;;;;;5016166;28;20199;-81
2022/10/04 14:21:22;;;;;;;6.33;4.07;;;;;;;;;;5014936;28;21645;-81
2022/10/04 14:24:11;;;;;;;6.50;4.30;;;;;;;;;;5006360;28;20301;-83
2022/10/04 14:26:58;;;;;;;6.73;4.83;;;;;;;;;;5009685;28;20195;-81
2022/10/04 14:29:46;;;;;;;5.47;2.93;;;;;;;;;;5000578;28;20212;-82
2022/10/04 14:32:32;;;;;;;6.73;3.20;;;;;;;;;;5036802;28;20210;-82
2022/10/04 14:35:09;;;;;;;4.83;3.37;;;;;;;;;;4982872;28;20201;-80
2022/10/04 14:37:50;;;;;;;2.20;1.93;;;;;;;;;;4972871;28;20222;-86
2022/10/04 14:40:28;;;;;;;1.87;1.73;;;;;;;;;;4975501;28;20201;-84
2022/10/04 14:43:14;;;;;;;3.67;3.00;;;;;;;;;;4992825;28;20206;-83
2022/10/04 14:45:51;;;;;;;5.20;2.43;;;;;;;;;;4999131;28;20206;-84
2022/10/04 14:48:39;;;;;;;1.97;1.57;;;;;;;;;;5006325;28;20207;-82
2022/10/04 14:51:15;;;;;;;3.27;2.53;;;;;;;;;;4990985;28;20222;-82
2022/10/04 14:53:50;;;;;;;1.17;1.07;;;;;;;;;;4994003;28;20218;-83
2022/10/04 14:56:40;;;;;;;1.80;1.70;;;;;;;;;;4992867;28;20215;-84
2022/10/04 14:59:27;;;;;;;4.00;1.70;;;;;;;;;;4986739;28;20223;-82
2022/10/04 15:02:12;;;;;;;2.13;1.93;;;;;;;;;;4992627;28;20225;-84
2022/10/04 15:04:56;;;;;;;3.53;2.50;;;;;;;;;;4990295;28;20224;-83
2022/10/04 15:07:30;;;;;;;2.60;2.40;;;;;;;;;;4995346;28;20210;-84
2022/10/04 15:10:04;;;;;;;3.87;2.70;;;;;;;;;;4988360;28;20215;-83
2022/10/04 15:12:51;;;;;;;4.37;2.57;;;;;;;;;;4990739;28;20231;-83
2022/10/04 15:16:01;;;;;;;1.80;1.37;;;;;;;;;;4989113;28;20208;-82
2022/10/04 15:18:47;;;;;;;7.10;2.30;;;;;;;;;;4992662;28;20219;-83
2022/10/04 15:21:30;;;;;;;2.17;1.73;;;;;;;;;;5009640;28;20204;-80
2022/10/04 15:24:22;;;;;;;1.43;1.37;;;;;;;;;;4992231;28;20200;-80
2022/10/04 15:26:55;;;;;;;5.50;3.33;;;;;;;;;;5000410;28;20257;-78
2022/10/04 15:29:26;;;;;;;2.87;2.13;;;;;;;;;;4996797;28;20205;-79
2022/10/04 15:32:03;;;;;;;4.33;2.63;;;;;;;;;;4986776;28;20281;-80
2022/10/04 15:34:36;;;;;;;9.97;4.20;;;;;;;;;;5024649;28;20230;-81
2022/10/04 15:37:08;;;;;;;3.40;2.67;;;;;;;;;;5034219;28;20219;-83
2022/10/04 15:39:51;;;;;;;3.67;2.50;;;;;;;;;;5049864;28;20190;-83
2022/10/04 15:42:29;;;;;;;7.70;3.30;;;;;;;;;;5018498;28;20288;-84
2022/10/04 15:45:20;;;;;;;2.33;2.13;;;;;;;;;;5030928;28;20206;-84
2022/10/04 15:48:00;;;;;;;3.07;2.77;;;;;;;;;;5032638;28;20206;-85
2022/10/04 15:50:33;;;;;;;6.03;4.63;;;;;;;;;;5030094;28;20203;-84
2022/10/04 15:53:15;;;;;;;7.60;4.37;;;;;;;;;;5026757;28;20226;-85
2022/10/04 15:56:05;;;;;;;3.43;2.97;;;;;;;;;;5031396;28;20206;-85
2022/10/04 15:58:51;;;;;;;5.37;3.33;;;;;;;;;;5029972;28;20286;-85
2022/10/04 16:01:35;;;;;;;6.47;3.57;;;;;;;;;;5016736;28;20215;-85
2022/10/04 16:04:20;;;;;;;6.23;3.23;;;;;;;;;;5032610;28;20283;-85
2022/10/04 16:06:52;;;;;;;3.67;3.17;;;;;;;;;;5027014;28;20202;-84